createdAt,value
2023-10-22T00:01:04.526Z,99127.13
2023-10-22T00:02:37.990Z,99109.09
2023-10-22T00:04:10.363Z,99122.25
2023-10-22T00:05:43.845Z,99116.59
2023-10-22T00:07:16.317Z,99096.75
2023-10-22T00:08:49.816Z,99114.16
2023-10-22T00:10:22.035Z,99099.19
2023-10-22T00:11:55.393Z,99101.22
2023-10-22T00:13:32.136Z,99098.78
2023-10-22T00:15:05.421Z,99085.84
2023-10-22T00:16:38.670Z,99092.75
2023-10-22T00:18:12.028Z,99103.47
2023-10-22T00:19:44.233Z,99107.94
2023-10-22T00:21:17.683Z,99118.88
2023-10-22T00:22:50.274Z,99099.47
2023-10-22T00:24:24.579Z,99117.47
2023-10-22T00:25:56.794Z,99116.66
2023-10-22T00:27:30.402Z,99120.06
2023-10-22T00:29:04.116Z,99127.00
2023-10-22T00:30:37.857Z,99124.56
2023-10-22T00:32:10.066Z,99133.25
2023-10-22T00:33:43.601Z,99140.16
2023-10-22T00:35:16.047Z,99131.44
2023-10-22T00:36:49.521Z,99120.66
2023-10-22T00:38:21.742Z,99119.06
2023-10-22T00:39:55.236Z,99121.47
2023-10-22T00:41:27.456Z,99129.16
2023-10-22T00:43:06.178Z,99130.22
2023-10-22T00:44:41.422Z,99125.38
2023-10-22T00:46:18.525Z,99128.81
2023-10-22T00:47:52.165Z,99124.53
2023-10-22T00:49:24.951Z,99099.88
2023-10-22T00:50:59.222Z,99122.53
2023-10-22T00:52:31.672Z,99118.28
2023-10-22T00:54:05.448Z,99119.91
2023-10-22T00:55:40.807Z,99122.72
2023-10-22T00:57:15.056Z,99121.13
2023-10-22T00:58:47.474Z,99116.84
2023-10-22T01:00:23.012Z,99116.00
2023-10-22T01:01:55.454Z,99109.09
2023-10-22T01:03:28.964Z,99105.59
2023-10-22T01:05:01.826Z,99101.97
2023-10-22T01:06:37.549Z,99105.19
2023-10-22T01:08:10.837Z,99087.78
2023-10-22T01:09:45.803Z,99086.16
2023-10-22T01:11:18.218Z,99094.84
2023-10-22T01:12:51.469Z,99102.50
2023-10-22T01:14:23.912Z,99101.03
2023-10-22T01:15:58.667Z,99093.31
2023-10-22T01:17:32.429Z,99107.91
2023-10-22T01:19:04.801Z,99081.63
2023-10-22T01:20:38.098Z,99109.47
2023-10-22T01:22:11.392Z,99115.16
2023-10-22T01:23:45.337Z,99114.13
2023-10-22T01:25:19.199Z,99126.09
2023-10-22T01:26:51.537Z,99115.34
2023-10-22T01:28:24.780Z,99128.91
2023-10-22T01:29:58.833Z,99135.41
2023-10-22T01:31:32.172Z,99139.28
2023-10-22T01:33:04.591Z,99152.66
2023-10-22T01:34:37.998Z,99153.25
2023-10-22T01:36:10.531Z,99156.47
2023-10-22T01:37:45.324Z,99152.50
2023-10-22T01:39:19.563Z,99168.91
2023-10-22T01:40:52.777Z,99166.25
2023-10-22T01:42:25.135Z,99163.47
2023-10-22T01:43:59.911Z,99149.72
2023-10-22T01:45:32.230Z,99167.97
2023-10-22T01:47:05.699Z,99155.19
2023-10-22T01:48:39.782Z,99146.06
2023-10-22T01:50:13.445Z,99156.59
2023-10-22T01:51:45.729Z,99153.78
2023-10-22T01:53:18.939Z,99159.00
2023-10-22T01:54:52.789Z,99159.41
2023-10-22T01:56:26.267Z,99156.97
2023-10-22T01:57:59.744Z,99167.09
2023-10-22T01:59:32.997Z,99163.47
2023-10-22T02:01:05.797Z,99164.06
2023-10-22T02:02:39.256Z,99177.41
2023-10-22T02:04:12.638Z,99160.34
2023-10-22T02:05:46.594Z,99163.81
2023-10-22T02:07:20.248Z,99165.44
2023-10-22T02:08:53.497Z,99180.81
2023-10-22T02:10:27.236Z,99177.56
2023-10-22T02:12:01.519Z,99174.91
2023-10-22T02:13:34.186Z,99179.97
2023-10-22T02:15:08.562Z,99195.63
2023-10-22T02:16:41.224Z,99192.97
2023-10-22T02:18:14.561Z,99188.53
2023-10-22T02:19:47.191Z,99163.47
2023-10-22T02:21:22.726Z,99186.09
2023-10-22T02:22:56.033Z,99168.06
2023-10-22T02:24:29.745Z,99199.72
2023-10-22T02:26:05.906Z,99201.34
2023-10-22T02:27:38.282Z,99181.22
2023-10-22T02:29:11.529Z,99187.69
2023-10-22T02:30:44.860Z,99193.59
2023-10-22T02:32:17.294Z,99181.00
2023-10-22T02:33:50.616Z,99191.16
2023-10-22T02:35:22.968Z,99192.53
2023-10-22T02:36:57.846Z,99186.03
2023-10-22T02:38:31.655Z,99188.25
2023-10-22T02:40:04.828Z,99164.31
2023-10-22T02:41:39.636Z,99175.81
2023-10-22T02:43:13.164Z,99172.97
2023-10-22T02:44:45.631Z,99173.78
2023-10-22T02:46:18.921Z,99170.53
2023-10-22T02:47:51.423Z,99175.41
2023-10-22T02:49:24.760Z,99165.31
2023-10-22T02:50:57.207Z,99170.91
2023-10-22T02:52:30.465Z,99175.81
2023-10-22T02:54:02.689Z,99176.00
2023-10-22T02:55:35.972Z,99170.53
2023-10-22T02:57:10.861Z,99168.28
2023-10-22T02:58:43.672Z,99165.22
2023-10-22T03:00:29.715Z,99170.66
2023-10-22T03:02:09.662Z,99159.13
2023-10-22T03:03:42.161Z,99177.56
2023-10-22T03:05:15.518Z,99179.97
2023-10-22T03:06:47.780Z,99174.88
2023-10-22T03:08:20.964Z,99175.28
2023-10-22T03:09:53.521Z,99183.00
2023-10-22T03:11:26.739Z,99182.63
2023-10-22T03:13:01.629Z,99190.13
2023-10-22T03:14:34.930Z,99175.91
2023-10-22T03:16:12.699Z,99186.84
2023-10-22T03:17:46.009Z,99191.53
2023-10-22T03:19:18.933Z,99185.84
2023-10-22T03:20:52.243Z,99176.09
2023-10-22T03:22:26.967Z,99172.28
2023-10-22T03:23:59.757Z,99168.63
2023-10-22T03:25:33.734Z,99176.91
2023-10-22T03:27:06.822Z,99164.34
2023-10-22T03:28:41.844Z,99172.28
2023-10-22T03:30:14.990Z,99175.13
2023-10-22T03:31:48.432Z,99178.56
2023-10-22T03:33:20.667Z,99180.84
2023-10-22T03:34:54.203Z,99181.66
2023-10-22T03:36:27.493Z,99171.69
2023-10-22T03:38:00.450Z,99173.91
2023-10-22T03:39:33.756Z,99167.41
2023-10-22T03:41:07.476Z,99175.72
2023-10-22T03:42:40.966Z,99169.22
2023-10-22T03:44:15.684Z,99162.91
2023-10-22T03:45:48.661Z,99160.47
2023-10-22T03:47:22.842Z,99161.50
2023-10-22T03:48:58.486Z,99149.41
2023-10-22T03:50:30.705Z,99170.78
2023-10-22T03:52:06.884Z,99174.00
2023-10-22T03:53:39.509Z,99152.47
2023-10-22T03:55:12.868Z,99143.91
2023-10-22T03:56:45.214Z,99148.56
2023-10-22T03:58:18.699Z,99159.88
2023-10-22T03:59:53.133Z,99167.81
2023-10-22T04:01:26.337Z,99167.81
2023-10-22T04:02:58.654Z,99165.75
2023-10-22T04:04:31.959Z,99159.25
2023-10-22T04:06:04.672Z,99148.22
2023-10-22T04:07:37.987Z,99137.31
2023-10-22T04:09:10.310Z,99128.56
2023-10-22T04:10:47.308Z,99129.00
2023-10-22T04:12:20.589Z,99130.63
2023-10-22T04:13:52.820Z,99134.66
2023-10-22T04:15:28.726Z,99133.84
2023-10-22T04:17:01.943Z,99130.38
2023-10-22T04:18:34.351Z,99127.16
2023-10-22T04:20:09.086Z,99137.53
2023-10-22T04:21:42.897Z,99123.28
2023-10-22T04:23:15.314Z,99127.09
2023-10-22T04:24:48.771Z,99138.25
2023-10-22T04:26:21.040Z,99142.53
2023-10-22T04:27:55.668Z,99146.41
2023-10-22T04:29:27.867Z,99150.69
2023-10-22T04:31:02.687Z,99152.09
2023-10-22T04:32:35.533Z,99154.09
2023-10-22T04:34:09.567Z,99158.56
2023-10-22T04:35:41.779Z,99158.56
2023-10-22T04:37:16.726Z,99172.56
2023-10-22T04:38:50.620Z,99168.53
2023-10-22T04:40:23.132Z,99165.06
2023-10-22T04:41:56.320Z,99170.34
2023-10-22T04:43:31.633Z,99163.66
2023-10-22T04:45:05.315Z,99172.75
2023-10-22T04:46:39.217Z,99178.88
2023-10-22T04:48:12.625Z,99171.94
2023-10-22T04:49:45.918Z,99159.56
2023-10-22T04:51:19.396Z,99156.50
2023-10-22T04:52:51.802Z,99150.41
2023-10-22T04:54:25.577Z,99154.09
2023-10-22T04:55:59.697Z,99159.78
2023-10-22T04:57:32.889Z,99157.16
2023-10-22T04:59:06.652Z,99171.94
2023-10-22T05:00:40.710Z,99173.16
2023-10-22T05:02:14.535Z,99170.53
2023-10-22T05:03:47.882Z,99168.88
2023-10-22T05:05:21.341Z,99166.25
2023-10-22T05:06:56.313Z,99173.75
2023-10-22T05:08:28.706Z,99168.84
2023-10-22T05:10:02.074Z,99161.75
2023-10-22T05:11:34.432Z,99174.69
2023-10-22T05:13:10.697Z,99172.03
2023-10-22T05:14:43.035Z,99164.75
2023-10-22T05:16:16.462Z,99182.03
2023-10-22T05:17:50.188Z,99189.59
2023-10-22T05:19:23.511Z,99191.19
2023-10-22T05:21:03.491Z,99186.88
2023-10-22T05:22:35.868Z,99182.41
2023-10-22T05:24:10.987Z,99169.03
2023-10-22T05:25:43.355Z,99184.38
2023-10-22T05:27:17.274Z,99196.75
2023-10-22T05:28:49.473Z,99191.19
2023-10-22T05:30:23.083Z,99176.50
2023-10-22T05:31:55.331Z,99180.13
2023-10-22T05:33:30.196Z,99174.59
2023-10-22T05:35:05.052Z,99177.84
2023-10-22T05:36:37.348Z,99178.88
2023-10-22T05:38:10.598Z,99172.56
2023-10-22T05:39:43.291Z,99164.78
2023-10-22T05:41:22.873Z,99176.22
2023-10-22T05:42:55.209Z,99178.44
2023-10-22T05:44:28.457Z,99184.72
2023-10-22T05:46:00.816Z,99177.78
2023-10-22T05:47:34.182Z,99180.78
2023-10-22T05:49:09.086Z,99186.69
2023-10-22T05:50:42.362Z,99175.50
2023-10-22T05:52:15.601Z,99170.84
2023-10-22T05:53:47.852Z,99174.41
2023-10-22T05:55:21.436Z,99176.97
2023-10-22T05:56:54.826Z,99176.69
2023-10-22T05:58:27.874Z,99182.59
2023-10-22T06:00:01.201Z,99175.81
2023-10-22T06:01:33.831Z,99174.75
2023-10-22T06:03:07.052Z,99174.34
2023-10-22T06:04:40.840Z,99171.47
2023-10-22T06:06:14.135Z,99178.97
2023-10-22T06:07:47.263Z,99178.53
2023-10-22T06:09:20.560Z,99182.00
2023-10-22T06:10:52.957Z,99187.13
2023-10-22T06:12:26.429Z,99191.03
2023-10-22T06:13:58.579Z,99174.19
2023-10-22T06:15:31.942Z,99185.16
2023-10-22T06:17:05.550Z,99181.53
2023-10-22T06:18:39.399Z,99185.59
2023-10-22T06:20:14.133Z,99192.19
2023-10-22T06:21:48.006Z,99201.38
2023-10-22T06:23:21.751Z,99201.38
2023-10-22T06:24:54.973Z,99197.13
2023-10-22T06:26:28.227Z,99189.78
2023-10-22T06:28:00.969Z,99183.00
2023-10-22T06:29:34.254Z,99181.19
2023-10-22T06:31:07.368Z,99177.38
2023-10-22T06:32:40.628Z,99180.53
2023-10-22T06:34:12.917Z,99177.41
2023-10-22T06:35:48.182Z,99175.50
2023-10-22T06:37:20.714Z,99172.22
2023-10-22T06:38:53.918Z,99167.06
2023-10-22T06:40:26.277Z,99170.66
2023-10-22T06:42:01.095Z,99176.66
2023-10-22T06:43:33.496Z,99164.59
2023-10-22T06:45:08.781Z,99164.47
2023-10-22T06:46:41.068Z,99176.22
2023-10-22T06:48:14.748Z,99178.66
2023-10-22T06:49:47.240Z,99174.88
2023-10-22T06:51:23.476Z,99174.41
2023-10-22T06:52:55.806Z,99177.22
2023-10-22T06:54:29.890Z,99176.97
2023-10-22T06:56:03.810Z,99180.09
2023-10-22T06:57:37.110Z,99170.66
2023-10-22T06:59:09.858Z,99186.69
2023-10-22T07:00:43.273Z,99180.25
2023-10-22T07:02:17.581Z,99184.38
2023-10-22T07:03:50.912Z,99196.84
2023-10-22T07:05:23.998Z,99188.94
2023-10-22T07:06:58.796Z,99186.28
2023-10-22T07:08:32.372Z,99189.16
2023-10-22T07:10:05.111Z,99205.97
2023-10-22T07:11:39.987Z,99206.69
2023-10-22T07:13:12.193Z,99202.97
2023-10-22T07:15:03.960Z,99192.53
2023-10-22T07:16:37.210Z,99191.88
2023-10-22T07:18:09.480Z,99194.25
2023-10-22T07:19:43.282Z,99198.69
2023-10-22T07:21:15.766Z,99189.03
2023-10-22T07:22:50.382Z,99200.34
2023-10-22T07:24:23.285Z,99194.56
2023-10-22T07:25:58.545Z,99194.16
2023-10-22T07:27:30.867Z,99195.31
2023-10-22T07:29:04.181Z,99198.63
2023-10-22T07:30:36.479Z,99189.28
2023-10-22T07:32:11.846Z,99197.00
2023-10-22T07:33:44.434Z,99176.84
2023-10-22T07:35:17.961Z,99181.03
2023-10-22T07:36:50.213Z,99190.38
2023-10-22T07:38:26.005Z,99174.66
2023-10-22T07:39:59.229Z,99159.59
2023-10-22T07:41:32.571Z,99185.94
2023-10-22T07:43:05.640Z,99197.56
2023-10-22T07:44:39.181Z,99197.31
2023-10-22T07:46:12.361Z,99181.66
2023-10-22T07:47:45.819Z,99175.94
2023-10-22T07:49:18.124Z,99168.97
2023-10-22T07:50:51.532Z,99173.50
2023-10-22T07:52:24.047Z,99142.34
2023-10-22T07:53:58.712Z,99165.91
2023-10-22T07:55:31.051Z,99164.09
2023-10-22T07:57:06.635Z,99153.84
2023-10-22T07:58:40.288Z,99160.16
2023-10-22T08:00:15.469Z,99157.63
2023-10-22T08:01:47.842Z,99158.75
2023-10-22T08:03:21.481Z,99166.28
2023-10-22T08:04:54.016Z,99170.31
2023-10-22T08:06:27.239Z,99172.69
2023-10-22T08:07:59.545Z,99156.31
2023-10-22T08:09:34.319Z,99153.72
2023-10-22T08:11:07.248Z,99158.91
2023-10-22T08:12:40.615Z,99164.00
2023-10-22T08:14:12.993Z,99153.25
2023-10-22T08:15:47.509Z,99124.56
2023-10-22T08:17:19.903Z,99139.09
2023-10-22T08:18:53.239Z,99135.63
2023-10-22T08:20:25.577Z,99136.81
2023-10-22T08:21:59.048Z,99136.19
2023-10-22T08:23:32.186Z,99129.50
2023-10-22T08:25:07.735Z,99141.31
2023-10-22T08:26:40.194Z,99129.69
2023-10-22T08:28:13.623Z,99126.09
2023-10-22T08:29:48.457Z,99123.91
2023-10-22T08:31:20.940Z,99132.09
2023-10-22T08:32:54.300Z,99129.53
2023-10-22T08:34:26.584Z,99127.75
2023-10-22T08:36:06.276Z,99133.44
2023-10-22T08:37:39.140Z,99127.25
2023-10-22T08:39:13.095Z,99118.25
2023-10-22T08:40:47.203Z,99142.03
2023-10-22T08:42:25.432Z,99129.91
2023-10-22T08:43:59.657Z,99127.38
2023-10-22T08:45:33.456Z,99129.84
2023-10-22T08:47:05.887Z,99131.56
2023-10-22T08:48:39.921Z,99128.31
2023-10-22T08:50:13.060Z,99129.38
2023-10-22T08:51:46.330Z,99126.47
2023-10-22T08:53:18.923Z,99132.56
2023-10-22T08:54:53.556Z,99128.00
2023-10-22T08:56:28.378Z,99122.25
2023-10-22T08:58:01.610Z,99127.53
2023-10-22T08:59:37.702Z,99112.69
2023-10-22T09:01:10.208Z,99112.19
2023-10-22T09:02:45.430Z,99106.09
2023-10-22T09:04:19.712Z,99112.28
2023-10-22T09:05:52.550Z,99106.34
2023-10-22T09:07:54.028Z,99101.06
2023-10-22T09:09:29.798Z,99097.34
2023-10-22T09:11:14.133Z,99100.03
2023-10-22T09:12:47.756Z,99092.34
2023-10-22T09:14:23.583Z,99090.38
2023-10-22T09:15:56.146Z,99099.38
2023-10-22T09:17:30.754Z,99094.41
2023-10-22T09:19:03.384Z,99095.50
2023-10-22T09:20:37.021Z,99094.09
2023-10-22T09:22:23.726Z,99096.19
2023-10-22T09:24:05.187Z,99088.59
2023-10-22T09:25:38.534Z,99089.78
2023-10-22T09:27:10.923Z,99090.34
2023-10-22T09:28:48.901Z,99083.78
2023-10-22T09:30:31.631Z,99074.34
2023-10-22T09:32:10.149Z,99072.69
2023-10-22T09:33:43.957Z,99080.44
2023-10-22T09:35:16.425Z,99059.03
2023-10-22T09:36:53.847Z,99076.81
2023-10-22T09:38:41.349Z,99072.25
2023-10-22T09:40:21.180Z,99048.78
2023-10-22T09:42:05.662Z,99048.66
2023-10-22T09:43:48.379Z,99039.94
2023-10-22T09:45:24.840Z,99039.31
2023-10-22T09:47:01.585Z,99036.00
2023-10-22T09:48:35.997Z,99015.31
2023-10-22T09:50:13.796Z,99024.38
2023-10-22T09:51:48.343Z,99030.59
2023-10-22T09:53:28.229Z,99023.91
2023-10-22T09:55:05.917Z,99029.25
2023-10-22T09:56:45.521Z,99030.25
2023-10-22T09:58:19.785Z,99034.91
2023-10-22T09:59:55.330Z,99044.66
2023-10-22T10:01:32.328Z,99051.91
2023-10-22T10:03:05.548Z,99051.19
2023-10-22T10:04:41.951Z,99046.81
2023-10-22T10:06:15.990Z,99041.50
2023-10-22T10:07:49.959Z,99047.31
2023-10-22T10:09:23.210Z,99040.94
2023-10-22T10:10:56.814Z,99051.41
2023-10-22T10:12:32.545Z,99047.31
2023-10-22T10:14:13.769Z,99038.75
2023-10-22T10:15:59.957Z,99030.22
2023-10-22T10:17:33.380Z,99025.00
2023-10-22T10:19:09.295Z,99030.63
2023-10-22T10:20:43.689Z,99027.63
2023-10-22T10:22:41.205Z,99022.84
2023-10-22T10:24:21.409Z,99021.25
2023-10-22T10:25:55.599Z,99027.44
2023-10-22T10:27:28.034Z,99019.59
2023-10-22T10:29:07.550Z,99021.81
2023-10-22T10:30:41.105Z,99019.25
2023-10-22T10:32:23.826Z,99011.88
2023-10-22T10:34:03.228Z,99022.06
2023-10-22T10:35:45.405Z,99006.38
2023-10-22T10:37:19.934Z,99001.97
2023-10-22T10:38:52.229Z,99004.66
2023-10-22T10:40:43.589Z,99000.25
2023-10-22T10:42:49.417Z,99005.88
2023-10-22T10:44:21.662Z,98999.25
2023-10-22T10:46:26.755Z,99003.16
2023-10-22T10:48:02.600Z,98998.13
2023-10-22T10:49:58.840Z,99000.88
2023-10-22T10:51:32.087Z,99007.38
2023-10-22T10:53:04.825Z,99002.78
2023-10-22T10:54:38.212Z,99002.34
2023-10-22T10:56:10.695Z,98996.94
2023-10-22T10:57:46.226Z,99001.72
2023-10-22T10:59:29.212Z,98994.72
2023-10-22T11:01:05.199Z,98995.22
2023-10-22T11:02:42.984Z,98988.56
2023-10-22T11:04:16.688Z,98979.84
2023-10-22T11:05:50.533Z,98992.47
2023-10-22T11:07:27.446Z,98990.25
2023-10-22T11:09:01.095Z,98991.53
2023-10-22T11:10:34.502Z,98991.88
2023-10-22T11:12:09.467Z,98991.44
2023-10-22T11:13:42.998Z,98997.34
2023-10-22T11:15:17.665Z,98988.91
2023-10-22T11:16:55.347Z,98985.94
2023-10-22T11:18:28.992Z,98993.72
2023-10-22T11:20:03.050Z,98987.81
2023-10-22T11:21:38.295Z,99000.19
2023-10-22T11:23:19.148Z,98995.09
2023-10-22T11:24:52.592Z,98992.06
2023-10-22T11:26:25.939Z,98996.38
2023-10-22T11:27:59.902Z,98987.16
2023-10-22T11:29:40.438Z,98970.28
2023-10-22T11:31:25.417Z,98980.91
2023-10-22T11:32:57.767Z,98998.59
2023-10-22T11:34:31.090Z,98996.88
2023-10-22T11:36:20.542Z,98999.41
2023-10-22T11:37:55.300Z,98995.41
2023-10-22T11:39:41.574Z,98994.16
2023-10-22T11:41:17.365Z,99006.72
2023-10-22T11:42:50.797Z,98996.09
2023-10-22T11:44:32.033Z,98977.47
2023-10-22T11:46:05.318Z,98981.28
2023-10-22T11:47:37.629Z,98992.78
2023-10-22T11:49:12.259Z,98994.34
2023-10-22T11:50:49.358Z,98986.88
2023-10-22T11:52:53.262Z,98996.72
2023-10-22T11:54:45.911Z,98999.09
2023-10-22T11:56:19.273Z,98982.56
2023-10-22T11:57:51.617Z,98982.75
2023-10-22T11:59:24.881Z,98992.91
2023-10-22T12:00:57.388Z,98984.94
2023-10-22T12:02:30.849Z,98991.81
2023-10-22T12:04:04.758Z,98985.00
2023-10-22T12:05:38.118Z,98975.88
2023-10-22T12:07:10.570Z,98993.88
2023-10-22T12:08:46.523Z,98973.38
2023-10-22T12:10:19.374Z,98979.28
2023-10-22T12:11:54.714Z,98978.19
2023-10-22T12:13:27.133Z,98985.81
2023-10-22T12:15:00.649Z,98983.59
2023-10-22T12:16:34.179Z,98981.03
2023-10-22T12:18:08.748Z,98972.72
2023-10-22T12:19:41.441Z,98971.03
2023-10-22T12:21:15.400Z,98975.13
2023-10-22T12:22:47.778Z,98957.31
2023-10-22T12:24:27.148Z,98964.31
2023-10-22T12:26:01.073Z,98955.09
2023-10-22T12:27:34.563Z,98961.94
2023-10-22T12:29:06.951Z,98971.03
2023-10-22T12:30:41.436Z,98961.16
2023-10-22T12:32:14.146Z,98957.06
2023-10-22T12:33:47.860Z,98973.75
2023-10-22T12:35:22.908Z,98964.50
2023-10-22T12:36:57.169Z,98971.78
2023-10-22T12:38:30.672Z,98980.06
2023-10-22T12:40:07.001Z,98977.38
2023-10-22T12:41:40.259Z,98972.25
2023-10-22T12:43:12.602Z,98970.69
2023-10-22T12:44:46.457Z,98980.84
2023-10-22T12:46:18.942Z,98970.03
2023-10-22T12:47:52.296Z,98966.72
2023-10-22T12:49:24.660Z,98970.03
2023-10-22T12:50:58.228Z,98970.03
2023-10-22T12:52:31.679Z,98972.72
2023-10-22T12:54:05.767Z,98964.16
2023-10-22T12:55:39.433Z,98963.38
2023-10-22T12:57:13.347Z,98971.63
2023-10-22T12:58:46.072Z,98973.84
2023-10-22T13:00:19.729Z,98975.44
2023-10-22T13:01:52.030Z,98982.75
2023-10-22T13:03:25.698Z,98970.34
2023-10-22T13:04:58.110Z,98972.44
2023-10-22T13:06:31.705Z,98973.53
2023-10-22T13:08:05.392Z,98969.56
2023-10-22T13:09:38.689Z,98972.25
2023-10-22T13:11:15.673Z,98972.25
2023-10-22T13:13:02.468Z,98970.69
2023-10-22T13:14:42.874Z,98969.25
2023-10-22T13:16:15.358Z,98964.78
2023-10-22T13:17:48.790Z,98961.13
2023-10-22T13:19:22.053Z,98962.56
2023-10-22T13:20:54.289Z,98961.75
2023-10-22T13:22:27.916Z,98951.56
2023-10-22T13:24:02.878Z,98952.38
2023-10-22T13:25:35.978Z,98946.31
2023-10-22T13:27:14.905Z,98954.59
2023-10-22T13:28:49.280Z,98953.31
2023-10-22T13:30:21.778Z,98956.00
2023-10-22T13:31:55.282Z,98953.78
2023-10-22T13:33:28.933Z,98954.91
2023-10-22T13:35:01.673Z,98957.75
2023-10-22T13:36:35.426Z,98939.44
2023-10-22T13:38:07.701Z,98951.88
2023-10-22T13:39:40.951Z,98952.19
2023-10-22T13:41:14.267Z,98961.06
2023-10-22T13:42:48.337Z,98953.59
2023-10-22T13:44:21.918Z,98950.91
2023-10-22T13:45:54.576Z,98950.41
2023-10-22T13:47:28.299Z,98946.09
2023-10-22T13:49:01.978Z,98951.50
2023-10-22T13:50:35.248Z,98955.63
2023-10-22T13:52:07.441Z,98951.97
2023-10-22T13:53:40.770Z,98946.09
2023-10-22T13:55:13.109Z,98949.88
2023-10-22T13:56:46.442Z,98953.38
2023-10-22T13:58:21.118Z,98957.78
2023-10-22T13:59:53.977Z,98966.97
2023-10-22T14:01:27.508Z,98958.38
2023-10-22T14:02:59.798Z,98959.19
2023-10-22T14:04:33.283Z,98958.72
2023-10-22T14:06:07.196Z,98955.22
2023-10-22T14:07:41.551Z,98965.53
2023-10-22T14:09:14.113Z,98960.75
2023-10-22T14:10:47.569Z,98942.44
2023-10-22T14:12:20.011Z,98950.69
2023-10-22T14:13:55.052Z,98957.22
2023-10-22T14:15:29.617Z,98954.31
2023-10-22T14:17:02.132Z,98961.78
2023-10-22T14:18:35.728Z,98954.59
2023-10-22T14:20:09.253Z,98957.41
2023-10-22T14:21:43.355Z,98954.06
2023-10-22T14:23:15.927Z,98955.28
2023-10-22T14:24:53.415Z,98953.50
2023-10-22T14:26:26.922Z,98953.91
2023-10-22T14:27:59.218Z,98957.53
2023-10-22T14:29:33.972Z,98950.00
2023-10-22T14:31:08.219Z,98951.41
2023-10-22T14:32:41.746Z,98957.88
2023-10-22T14:34:25.180Z,98949.44
2023-10-22T14:36:02.100Z,98955.25
2023-10-22T14:37:35.832Z,98955.47
2023-10-22T14:39:08.348Z,98964.16
2023-10-22T14:40:42.051Z,98957.88
2023-10-22T14:42:14.255Z,98956.72
2023-10-22T14:43:47.653Z,98958.50
2023-10-22T14:45:21.522Z,98969.38
2023-10-22T14:46:54.795Z,98967.09
2023-10-22T14:48:27.216Z,98968.09
2023-10-22T14:50:00.763Z,98960.16
2023-10-22T14:51:34.060Z,98969.91
2023-10-22T14:53:07.373Z,98970.28
2023-10-22T14:54:39.687Z,98965.09
2023-10-22T14:56:13.262Z,98958.31
2023-10-22T14:57:45.668Z,98968.09
2023-10-22T14:59:19.118Z,98977.34
2023-10-22T15:00:52.727Z,98976.44
2023-10-22T15:02:26.193Z,98963.63
2023-10-22T15:03:58.618Z,98979.97
2023-10-22T15:05:32.288Z,98979.34
2023-10-22T15:07:05.991Z,98977.91
2023-10-22T15:08:38.369Z,98976.47
2023-10-22T15:10:12.445Z,98977.72
2023-10-22T15:11:44.781Z,98968.22
2023-10-22T15:13:18.125Z,98982.00
2023-10-22T15:14:50.481Z,98977.56
2023-10-22T15:16:25.568Z,98971.59
2023-10-22T15:17:57.991Z,98972.75
2023-10-22T15:19:32.433Z,98976.66
2023-10-22T15:21:05.156Z,98982.44
2023-10-22T15:22:39.944Z,98993.28
2023-10-22T15:24:12.373Z,98977.66
2023-10-22T15:25:46.562Z,98979.38
2023-10-22T15:27:18.958Z,98994.44
2023-10-22T15:28:52.522Z,98992.72
2023-10-22T15:30:27.166Z,98992.59
2023-10-22T15:32:02.561Z,99003.88
2023-10-22T15:33:34.908Z,98996.78
2023-10-22T15:35:09.246Z,98989.88
2023-10-22T15:36:42.612Z,98997.44
2023-10-22T15:38:14.946Z,99015.69
2023-10-22T15:39:48.345Z,99016.59
2023-10-22T15:41:21.811Z,99025.75
2023-10-22T15:42:54.450Z,99021.50
2023-10-22T15:44:28.085Z,99027.97
2023-10-22T15:46:00.467Z,99033.38
2023-10-22T15:47:35.592Z,99030.44
2023-10-22T15:49:07.908Z,99026.19
2023-10-22T15:50:43.607Z,99029.69
2023-10-22T15:52:15.945Z,99035.63
2023-10-22T15:53:49.915Z,99037.78
2023-10-22T15:55:22.359Z,99030.56
2023-10-22T15:56:55.582Z,99042.63
2023-10-22T15:58:27.924Z,99048.53
2023-10-22T16:00:01.604Z,99053.34
2023-10-22T16:01:34.933Z,99048.00
2023-10-22T16:03:08.750Z,99052.31
2023-10-22T16:04:42.442Z,99062.50
2023-10-22T16:06:15.199Z,99059.56
2023-10-22T16:07:48.586Z,99065.44
2023-10-22T16:09:20.832Z,99062.75
2023-10-22T16:10:54.433Z,99053.94
2023-10-22T16:12:28.121Z,99068.38
2023-10-22T16:14:01.642Z,99077.44
2023-10-22T16:15:34.045Z,99079.59
2023-10-22T16:17:09.930Z,99083.34
2023-10-22T16:18:43.979Z,99082.28
2023-10-22T16:20:17.575Z,99077.22
2023-10-22T16:21:49.934Z,99082.56
2023-10-22T16:23:23.571Z,99085.22
2023-10-22T16:24:56.248Z,99095.66
2023-10-22T16:26:29.603Z,99081.22
2023-10-22T16:28:01.939Z,99092.19
2023-10-22T16:29:35.319Z,99087.66
2023-10-22T16:31:08.660Z,99095.66
2023-10-22T16:32:40.990Z,99097.75
2023-10-22T16:34:15.789Z,99099.09
2023-10-22T16:35:49.320Z,99103.63
2023-10-22T16:37:21.684Z,99111.06
2023-10-22T16:38:54.979Z,99112.66
2023-10-22T16:40:27.260Z,99109.44
2023-10-22T16:42:00.680Z,99107.53
2023-10-22T16:43:33.150Z,99105.66
2023-10-22T16:45:07.024Z,99107.00
2023-10-22T16:46:40.201Z,99101.38
2023-10-22T16:48:13.795Z,99103.50
2023-10-22T16:49:47.640Z,99121.69
2023-10-22T16:51:21.203Z,99126.47
2023-10-22T16:52:54.572Z,99125.38
2023-10-22T16:54:28.741Z,99128.06
2023-10-22T16:56:03.013Z,99127.47
2023-10-22T16:57:36.531Z,99140.53
2023-10-22T16:59:09.896Z,99134.38
2023-10-22T17:00:42.261Z,99124.63
2023-10-22T17:02:15.865Z,99142.00
2023-10-22T17:03:48.407Z,99152.34
2023-10-22T17:05:23.300Z,99143.97
2023-10-22T17:06:55.659Z,99146.88
2023-10-22T17:08:29.057Z,99157.56
2023-10-22T17:10:02.364Z,99162.59
2023-10-22T17:11:35.160Z,99143.59
2023-10-22T17:13:08.487Z,99158.56
2023-10-22T17:14:52.203Z,99153.66
2023-10-22T17:16:26.567Z,99132.31
2023-10-22T17:17:58.929Z,99169.78
2023-10-22T17:19:32.496Z,99168.88
2023-10-22T17:21:06.527Z,99174.97
2023-10-22T17:22:41.017Z,99180.97
2023-10-22T17:24:13.535Z,99180.06
2023-10-22T17:25:49.989Z,99178.66
2023-10-22T17:27:24.020Z,99178.34
2023-10-22T17:28:58.321Z,99188.97
2023-10-22T17:30:30.962Z,99169.91
2023-10-22T17:32:04.691Z,99185.72
2023-10-22T17:33:49.320Z,99189.25
2023-10-22T17:35:30.437Z,99183.13
2023-10-22T17:37:07.472Z,99192.22
2023-10-22T17:38:39.916Z,99185.22
2023-10-22T17:40:13.811Z,99197.19
2023-10-22T17:41:47.414Z,99212.63
2023-10-22T17:43:19.725Z,99214.16
2023-10-22T17:44:53.082Z,99202.81
2023-10-22T17:46:25.687Z,99206.75
2023-10-22T17:48:01.235Z,99208.53
2023-10-22T17:49:34.053Z,99209.94
2023-10-22T17:51:07.433Z,99211.22
2023-10-22T17:52:41.372Z,99218.38
2023-10-22T17:54:14.623Z,99220.66
2023-10-22T17:55:55.403Z,99219.84
2023-10-22T17:57:36.450Z,99220.34
2023-10-22T17:59:09.856Z,99223.41
2023-10-22T18:00:42.298Z,99227.16
2023-10-22T18:02:15.693Z,99225.53
2023-10-22T18:03:50.123Z,99218.44
2023-10-22T18:05:23.171Z,99236.63
2023-10-22T18:06:56.805Z,99223.03
2023-10-22T18:08:30.785Z,99232.38
2023-10-22T18:10:07.666Z,99206.50
2023-10-22T18:11:42.057Z,99182.34
2023-10-22T18:13:14.800Z,99215.72
2023-10-22T18:14:48.277Z,99243.91
2023-10-22T18:16:22.788Z,99259.53
2023-10-22T18:17:56.294Z,99235.34
2023-10-22T18:19:39.802Z,99257.38
2023-10-22T18:21:14.460Z,99252.69
2023-10-22T18:22:47.966Z,99256.97
2023-10-22T18:24:22.817Z,99248.44
2023-10-22T18:26:02.614Z,99264.47
2023-10-22T18:27:36.004Z,99261.78
2023-10-22T18:29:08.670Z,99263.88